Pagina principale
METAR-TAF:

METAR-TAF

Aeroporti :

Aeroporto di Pointe Noire

Pointe-Noire, Congo

latitudine: 04-49S, longitudine: 011-54E, altezza: 17 m

Osservazione

Il bollettino è stato emesso 1 ora e 11 minuti fa, alle 06:00 UTC
Vento 2 kt da direzioni variabili
Temperature 23°C
Umidità 100%
Pressione 1013 hPa
Visibilità: 6000 m
Nubi sparse ad un'altezza di 700 ft
Cielo coperto ad un'altezza di 2300 ft

METAR: FCPP 230600Z VRB02KT 6000 SCT007 OVC023 23/23 Q1013 NOSIG

Ora: 08:11 (07:11 UTC)

Previsione

Il bollettino è stato emesso 2 ore e 11 minuti fa, alle 05:00 UTC
Previsione valida dal 23 alle 06 UTC al 24 alle 06 UTC
Vento 6 kt da sud
Visibilità: 8000 m
Nubi sparse ad un'altezza di 1200 ft
Nuvoloso ad un'altezza di 2600 ft
Probabilità 30%
dal 23 alle 06 UTC al 23 alle 09 UTC
Visibilità: 3500 m
Nuvoloso ad un'altezza di 800 ft
Nuvoloso ad un'altezza di 2300 ft
pioviggine

TAF: FCPP 230500Z 2306/2406 18006KT 8000 SCT012 BKN026 PROB30 2306/2309 3500 DZ BKN008 BKN023

Osservazioni e previsioni meteorologiche di più di 4000 aeroporti (messaggi METAR e TAF).

Le stazioni disponibili sono rappresentate dai dischi gialli e rossi sulla carta.

Puntare il mouse per vedere il nome della stazione.

Clicca sopra per visualizzare le osservazioni e previsioni meteorologiche.

Per cambiare la mappa : fare clic sui pulsanti verdi con una croce nera per ingrandire, il pulsante verde con un trattino per diminuire, o sulla freccia verde per le mappe adiacenti.


METAR-TAF: